Time;durP1;ratioP1;P1;durP2;ratioP2;P2;SDS_P1;SDS_P2;PMS_P1;PMS_P2;Temp;Humidity;BMP_temperature;BMP_pressure;BME280_temperature;BME280_humidity;BME280_pressure;Samples;Min_cycle;Max_cycle;Signal;HPM_P1;HPM_P2
2022/12/19 00:00:27;;;;;;;7.88;5.30;;;;;;;;;;5965179;24;20012;-91
2022/12/19 00:03:54;;;;;;;;;;;;;;;;;;5980648;24;20595;-91
2022/12/19 00:11:09;;;;;;;;;;;;;;;;;;;;;
2022/12/19 00:14:28;;;;;;;6.80;5.10;;;;;;;;;;6009280;23;20125;-92
2022/12/19 00:18:21;;;;;;;7.78;4.90;;;;;;;;;;5940115;24;20441;-91
2022/12/19 00:22:07;;;;;;;8.23;5.90;;;;;;;;;;5950995;24;20038;-92
2022/12/19 00:32:34;;;;;;;6.65;4.53;;;;;;;;;;5951084;24;20029;-92
2022/12/19 00:36:19;;;;;;;6.78;4.72;;;;;;;;;;5883658;24;20096;-92
2022/12/19 00:43:28;;;;;;;6.60;4.70;;;;;;;;;;5951748;24;20024;-91
2022/12/19 00:47:16;;;;;;;7.80;4.90;;;;;;;;;;5962853;24;20020;-91
2022/12/19 00:50:24;;;;;;;6.25;4.28;;;;;;;;;;5942877;24;20107;-91
2022/12/19 00:53:50;;;;;;;7.43;5.25;;;;;;;;;;5987652;23;20020;-92
2022/12/19 00:57:56;;;;;;;7.57;3.90;;;;;;;;;;6092945;23;20022;-92
2022/12/19 01:01:13;;;;;;;6.45;4.28;;;;;;;;;;6031496;23;20023;-92
2022/12/19 01:05:12;;;;;;;5.93;4.18;;;;;;;;;;6049144;23;20364;-91
2022/12/19 01:08:24;;;;;;;7.68;4.72;;;;;;;;;;6063242;23;20023;-92
2022/12/19 01:15:45;;;;;;;5.93;4.03;;;;;;;;;;6017639;23;20495;-92
2022/12/19 01:19:30;;;;;;;5.85;4.30;;;;;;;;;;6023483;23;20142;-91
2022/12/19 01:22:47;;;;;;;5.32;4.07;;;;;;;;;;6044417;23;20046;-93
2022/12/19 01:26:10;;;;;;;6.50;4.30;;;;;;;;;;6064763;23;20011;-91
2022/12/19 01:29:47;;;;;;;5.90;4.28;;;;;;;;;;6052194;23;20019;-91
2022/12/19 01:33:07;;;;;;;6.47;4.70;;;;;;;;;;6021758;23;20540;-92
2022/12/19 01:36:34;;;;;;;6.95;4.57;;;;;;;;;;6036857;23;20148;-92
2022/12/19 01:39:44;;;;;;;6.18;4.43;;;;;;;;;;5978259;23;20015;-91
2022/12/19 01:43:24;;;;;;;5.80;3.88;;;;;;;;;;6021717;23;20461;-90
2022/12/19 01:47:15;;;;;;;6.30;3.97;;;;;;;;;;6007960;23;20079;-91
2022/12/19 01:51:01;;;;;;;6.93;4.40;;;;;;;;;;5971244;23;20079;-92
2022/12/19 01:54:35;;;;;;;5.78;3.80;;;;;;;;;;6010704;23;20016;-91
2022/12/19 01:57:46;;;;;;;5.38;3.80;;;;;;;;;;6008706;23;20012;-93
2022/12/19 02:01:14;;;;;;;5.18;3.28;;;;;;;;;;5989707;23;20020;-91
2022/12/19 02:05:05;;;;;;;6.00;3.67;;;;;;;;;;6007294;23;20020;-91
2022/12/19 02:08:05;;;;;;;5.05;3.25;;;;;;;;;;6010010;23;20040;-92
2022/12/19 02:11:37;;;;;;;4.80;3.33;;;;;;;;;;5992060;23;20085;-92
2022/12/19 02:14:55;;;;;;;5.07;3.30;;;;;;;;;;6002577;23;20031;-90
2022/12/19 02:22:37;;;;;;;4.93;3.00;;;;;;;;;;6156904;23;20010;-92
2022/12/19 03:36:20;;;;;;;5.30;3.17;;;;;;;;;;6065117;23;20023;-92
2022/12/19 03:48:18;;;;;;;4.78;2.58;;;;;;;;;;6008547;23;20130;-92
2022/12/19 03:52:12;;;;;;;;;;;;;;;;;;;;;
2022/12/19 03:55:50;;;;;;;3.75;2.45;;;;;;;;;;5817526;24;20029;-93
2022/12/19 03:59:19;;;;;;;3.92;2.50;;;;;;;;;;5788453;24;20035;-92
2022/12/19 04:03:06;;;;;;;3.72;2.47;;;;;;;;;;5841730;24;20024;-92
2022/12/19 04:14:22;;;;;;;4.10;2.72;;;;;;;;;;5869731;24;20025;-93
2022/12/19 04:18:23;;;;;;;3.53;2.20;;;;;;;;;;5894406;24;20458;-92
2022/12/19 04:22:04;;;;;;;4.30;2.38;;;;;;;;;;5794018;24;20073;-92
2022/12/19 04:41:16;;;;;;;3.75;2.10;;;;;;;;;;5737949;24;20111;-92
2022/12/19 04:44:50;;;;;;;3.72;2.38;;;;;;;;;;5737345;24;20083;-92
2022/12/19 04:48:35;;;;;;;4.25;2.00;;;;;;;;;;5719159;25;20035;-92
2022/12/19 04:52:24;;;;;;;2.92;2.05;;;;;;;;;;5687260;25;20041;-91
2022/12/19 04:56:27;;;;;;;3.90;2.08;;;;;;;;;;5694711;25;20066;-94
2022/12/19 05:00:03;;;;;;;3.08;2.17;;;;;;;;;;5728154;24;20043;-92
2022/12/19 05:03:45;;;;;;;3.05;1.65;;;;;;;;;;5751409;24;20497;-92
2022/12/19 05:07:20;;;;;;;3.40;2.03;;;;;;;;;;5791484;24;20024;-92
2022/12/19 05:11:02;;;;;;;4.10;1.95;;;;;;;;;;5826542;24;20019;-91
2022/12/19 05:18:35;;;;;;;2.85;1.40;;;;;;;;;;6084392;23;20023;-92
2022/12/19 05:22:23;;;;;;;;;;;;;;;;;;;;;
2022/12/19 05:26:02;;;;;;;3.20;1.60;;;;;;;;;;6065241;23;20034;-92
2022/12/19 05:33:50;;;;;;;3.03;1.70;;;;;;;;;;5980702;24;20020;-92
2022/12/19 05:41:55;;;;;;;3.40;1.85;;;;;;;;;;5926336;24;20029;-92
2022/12/19 06:28:15;;;;;;;3.00;1.52;;;;;;;;;;5686765;25;20056;-92
2022/12/19 06:31:12;;;;;;;2.22;1.20;;;;;;;;;;5697238;25;20017;-91
2022/12/19 06:34:12;;;;;;;3.53;1.40;;;;;;;;;;5747138;24;20035;-91
